Time;durP1;ratioP1;P1;durP2;ratioP2;P2;SDS_P1;SDS_P2;PMS_P1;PMS_P2;Temp;Humidity;BMP_temperature;BMP_pressure;BME280_temperature;BME280_humidity;BME280_pressure;Samples;Min_cycle;Max_cycle;Signal;HPM_P1;HPM_P2
2024/01/23 00:02:09;;;;;;;1.65;1.00;;;6.00;99.90;;;;;;4946344;28;20050;-70
2024/01/23 00:04:35;;;;;;;1.98;1.13;;;6.00;99.90;;;;;;4946162;28;20559;-71
2024/01/23 00:07:01;;;;;;;1.52;1.00;;;6.00;99.90;;;;;;4946374;28;20455;-70
2024/01/23 00:09:27;;;;;;;0.90;0.90;;;6.00;99.90;;;;;;4941412;29;20050;-72
2024/01/23 00:11:54;;;;;;;0.73;0.73;;;6.00;99.90;;;;;;4944675;28;20114;-71
2024/01/23 00:14:19;;;;;;;2.00;1.25;;;6.00;99.90;;;;;;4939481;28;20492;-71
2024/01/23 00:16:45;;;;;;;1.45;0.98;;;6.00;99.90;;;;;;4930130;29;20023;-71
2024/01/23 00:19:11;;;;;;;1.10;1.10;;;6.10;99.90;;;;;;4940968;28;20051;-71
2024/01/23 00:21:37;;;;;;;0.98;0.88;;;6.00;99.90;;;;;;4939889;28;20094;-71
2024/01/23 00:24:03;;;;;;;0.85;0.85;;;6.00;99.90;;;;;;4945724;28;20047;-70
2024/01/23 00:26:29;;;;;;;0.80;0.80;;;5.90;99.90;;;;;;4945432;29;20536;-72
2024/01/23 00:28:54;;;;;;;0.70;0.70;;;5.80;99.90;;;;;;4942493;28;20066;-72
2024/01/23 00:31:20;;;;;;;1.27;0.60;;;5.70;99.90;;;;;;4946576;28;20122;-70
2024/01/23 00:33:46;;;;;;;1.33;0.80;;;5.60;99.90;;;;;;4940565;28;20090;-70
2024/01/23 00:36:11;;;;;;;1.17;1.17;;;5.60;99.90;;;;;;4946169;28;20055;-71
2024/01/23 00:38:37;;;;;;;0.70;0.70;;;5.50;99.90;;;;;;4942377;29;20098;-70
2024/01/23 00:41:03;;;;;;;1.55;1.25;;;5.40;99.90;;;;;;4947339;28;20118;-71
2024/01/23 00:43:30;;;;;;;0.75;0.70;;;5.40;99.90;;;;;;4930927;29;20388;-71
2024/01/23 00:45:55;;;;;;;0.95;0.80;;;5.40;99.90;;;;;;4944359;28;20027;-70
2024/01/23 00:48:21;;;;;;;0.80;0.80;;;5.30;99.90;;;;;;4940826;28;20061;-70
2024/01/23 00:50:47;;;;;;;1.33;0.73;;;5.30;99.90;;;;;;4944911;28;20046;-70
2024/01/23 00:53:13;;;;;;;1.42;0.85;;;5.30;99.90;;;;;;4944480;29;20095;-69
2024/01/23 00:55:39;;;;;;;0.75;0.75;;;5.20;99.90;;;;;;4942833;28;20492;-70
2024/01/23 00:58:05;;;;;;;2.50;0.90;;;5.20;99.90;;;;;;4941541;28;20635;-70
2024/01/23 01:00:30;;;;;;;1.33;0.80;;;5.10;99.90;;;;;;4938701;28;20031;-70
2024/01/23 01:02:56;;;;;;;1.45;0.70;;;5.10;99.90;;;;;;4939076;28;20557;-70
2024/01/23 01:05:22;;;;;;;0.77;0.77;;;5.10;99.90;;;;;;4938752;28;20031;-70
2024/01/23 01:07:47;;;;;;;0.70;0.68;;;5.00;99.90;;;;;;4932751;29;20173;-70
2024/01/23 01:10:13;;;;;;;1.25;1.25;;;5.10;99.90;;;;;;4937616;29;20040;-70
2024/01/23 01:12:39;;;;;;;2.50;0.65;;;5.00;99.90;;;;;;4946971;29;20126;-70
2024/01/23 01:15:05;;;;;;;0.80;0.75;;;4.90;99.90;;;;;;4943841;28;20024;-70
2024/01/23 01:17:32;;;;;;;1.67;1.08;;;5.00;99.90;;;;;;4936014;28;20449;-70
2024/01/23 01:19:58;;;;;;;0.60;0.60;;;4.80;99.90;;;;;;4949842;28;20019;-71
2024/01/23 01:22:23;;;;;;;1.33;0.80;;;4.80;99.90;;;;;;4949964;29;20098;-69
2024/01/23 01:24:49;;;;;;;1.48;0.88;;;4.70;99.90;;;;;;4945365;28;20484;-70
2024/01/23 01:27:15;;;;;;;0.43;0.43;;;4.70;99.90;;;;;;4965718;29;20042;-70
2024/01/23 01:29:41;;;;;;;1.13;1.13;;;4.60;99.90;;;;;;4966570;29;20043;-72
2024/01/23 01:32:07;;;;;;;0.63;0.63;;;4.40;99.90;;;;;;4957489;28;20039;-73
2024/01/23 01:34:33;;;;;;;0.80;0.80;;;4.30;99.90;;;;;;4969705;29;20031;-72
2024/01/23 01:36:59;;;;;;;1.33;1.20;;;4.20;99.90;;;;;;4970000;28;20038;-73
2024/01/23 01:39:24;;;;;;;1.45;0.63;;;4.30;99.90;;;;;;4965856;28;20092;-71
2024/01/23 01:41:54;;;;;;;0.70;0.70;;;4.30;99.90;;;;;;4969376;28;20044;-71
2024/01/23 01:44:20;;;;;;;0.80;0.80;;;4.30;99.90;;;;;;4956314;29;20153;-73
2024/01/23 01:46:47;;;;;;;1.55;1.35;;;4.30;99.90;;;;;;4971804;29;20036;-74
2024/01/23 01:49:14;;;;;;;1.15;0.90;;;4.30;99.90;;;;;;4964991;28;20098;-73
2024/01/23 01:51:41;;;;;;;0.88;0.85;;;4.30;99.90;;;;;;4954938;29;20035;-74
2024/01/23 01:54:07;;;;;;;0.95;0.82;;;4.30;99.90;;;;;;4967187;29;20033;-73
2024/01/23 01:56:34;;;;;;;1.73;1.10;;;4.30;99.90;;;;;;4963386;28;20113;-73
2024/01/23 01:59:00;;;;;;;1.48;1.17;;;4.30;99.90;;;;;;4966317;28;20016;-74
2024/01/23 02:01:27;;;;;;;1.65;1.20;;;4.40;99.90;;;;;;4969023;28;20066;-72
2024/01/23 02:03:53;;;;;;;1.75;1.20;;;4.40;99.90;;;;;;4962441;28;20023;-71
2024/01/23 02:06:19;;;;;;;1.00;1.00;;;4.40;99.90;;;;;;4969426;28;20038;-71
2024/01/23 02:08:46;;;;;;;2.90;1.20;;;4.40;99.90;;;;;;4964553;28;20023;-73
2024/01/23 02:11:12;;;;;;;1.52;1.10;;;4.40;99.90;;;;;;4952591;29;20063;-72
2024/01/23 02:13:38;;;;;;;3.47;1.30;;;4.40;99.90;;;;;;4972048;29;20043;-73
2024/01/23 02:16:04;;;;;;;2.40;1.00;;;4.40;99.90;;;;;;4960638;29;20043;-70
2024/01/23 02:18:29;;;;;;;2.08;0.93;;;4.40;99.90;;;;;;4942148;28;20020;-70
2024/01/23 02:20:55;;;;;;;1.60;1.50;;;4.40;99.90;;;;;;4948007;29;20385;-69
2024/01/23 02:23:25;;;;;;;2.22;1.08;;;4.40;99.90;;;;;;4948347;28;20069;-70
2024/01/23 02:25:51;;;;;;;2.08;0.80;;;4.40;99.90;;;;;;4945197;29;20035;-70
2024/01/23 02:28:16;;;;;;;1.10;1.00;;;4.30;99.90;;;;;;4945381;28;20258;-70
2024/01/23 02:30:42;;;;;;;2.08;1.10;;;4.30;99.90;;;;;;4959053;29;20070;-72
2024/01/23 02:33:08;;;;;;;1.23;1.15;;;4.30;99.90;;;;;;4952896;29;20404;-72
2024/01/23 02:35:34;;;;;;;1.80;0.90;;;4.30;99.90;;;;;;4967663;28;20039;-70
2024/01/23 02:38:00;;;;;;;1.77;0.82;;;4.40;99.90;;;;;;4931538;29;20098;-70
2024/01/23 02:40:26;;;;;;;0.90;0.90;;;4.40;99.90;;;;;;4948559;28;20352;-70
2024/01/23 02:42:52;;;;;;;0.95;0.95;;;4.40;99.90;;;;;;4941179;29;20442;-69
2024/01/23 02:45:18;;;;;;;1.08;1.00;;;4.40;99.90;;;;;;4947154;29;20031;-70
2024/01/23 02:47:43;;;;;;;1.90;0.80;;;4.50;99.90;;;;;;4942881;28;20031;-69
2024/01/23 02:50:09;;;;;;;1.23;0.90;;;4.50;99.90;;;;;;4945966;28;20039;-69
2024/01/23 02:52:35;;;;;;;1.60;1.10;;;4.50;99.90;;;;;;4945932;28;20102;-69
2024/01/23 02:55:01;;;;;;;1.88;0.70;;;4.60;99.90;;;;;;4928840;29;20146;-69
2024/01/23 02:57:27;;;;;;;1.13;0.93;;;4.70;99.90;;;;;;4933067;29;20456;-70
2024/01/23 02:59:54;;;;;;;1.85;0.90;;;4.70;99.90;;;;;;4946208;28;20138;-71
2024/01/23 03:02:23;;;;;;;0.75;0.75;;;4.70;99.90;;;;;;4940460;28;20023;-70
2024/01/23 03:04:50;;;;;;;3.30;1.00;;;4.60;99.90;;;;;;4947687;28;20029;-71
2024/01/23 03:07:16;;;;;;;0.80;0.80;;;4.70;99.90;;;;;;4947326;28;20031;-70
2024/01/23 03:09:42;;;;;;;1.23;1.05;;;5.00;99.90;;;;;;4946243;28;20046;-70
2024/01/23 03:12:17;;;;;;;1.50;0.80;;;4.80;99.90;;;;;;4945430;28;20027;-70
2024/01/23 03:14:44;;;;;;;0.68;0.68;;;4.90;99.90;;;;;;4946345;28;20035;-71
2024/01/23 03:17:14;;;;;;;0.70;0.70;;;4.80;99.90;;;;;;4945606;28;20413;-70
2024/01/23 03:19:41;;;;;;;1.00;0.90;;;4.70;99.90;;;;;;4927879;29;20042;-70
2024/01/23 03:22:07;;;;;;;2.35;0.88;;;4.60;99.90;;;;;;4946901;28;20058;-70
2024/01/23 03:24:36;;;;;;;0.80;0.80;;;4.50;99.90;;;;;;4946199;28;20119;-71
2024/01/23 03:27:03;;;;;;;0.75;0.60;;;4.50;99.90;;;;;;4944472;29;20023;-70
2024/01/23 03:29:29;;;;;;;1.55;0.88;;;4.50;99.90;;;;;;4943395;28;20038;-70
2024/01/23 03:31:55;;;;;;;0.77;0.77;;;4.40;99.90;;;;;;4948056;29;20039;-71
2024/01/23 03:34:20;;;;;;;2.17;1.00;;;4.40;99.90;;;;;;4948376;29;20126;-70
2024/01/23 03:36:46;;;;;;;0.80;0.75;;;4.50;99.90;;;;;;4933738;29;20184;-69
2024/01/23 03:39:12;;;;;;;1.40;1.00;;;4.50;99.90;;;;;;4943688;28;20055;-70
2024/01/23 03:41:38;;;;;;;0.60;0.60;;;4.50;99.90;;;;;;4945271;29;20024;-70
2024/01/23 03:44:07;;;;;;;2.00;0.90;;;4.60;99.90;;;;;;4944702;29;20046;-70
2024/01/23 03:46:33;;;;;;;2.58;0.88;;;4.60;99.90;;;;;;4942951;28;20023;-71
2024/01/23 03:48:59;;;;;;;1.27;0.80;;;4.50;99.90;;;;;;4941281;29;20042;-70
2024/01/23 03:51:25;;;;;;;1.30;1.23;;;4.50;99.90;;;;;;4948652;29;20408;-71
2024/01/23 03:53:51;;;;;;;2.05;0.70;;;4.50;99.90;;;;;;4942296;28;20034;-70
2024/01/23 03:56:17;;;;;;;1.60;0.80;;;4.60;99.90;;;;;;4941411;28;20686;-70
2024/01/23 03:58:43;;;;;;;2.20;1.45;;;4.60;99.90;;;;;;4945162;28;20515;-71
2024/01/23 04:01:09;;;;;;;2.63;1.08;;;4.50;99.90;;;;;;4928958;29;20126;-70
2024/01/23 04:03:37;;;;;;;1.67;0.80;;;4.60;99.90;;;;;;4942156;28;20089;-71
2024/01/23 04:06:03;;;;;;;1.10;0.98;;;4.50;99.90;;;;;;4948327;28;20493;-69
2024/01/23 04:08:29;;;;;;;4.75;1.42;;;4.50;99.90;;;;;;4947527;29;20058;-71
2024/01/23 04:10:57;;;;;;;1.50;1.00;;;4.40;99.90;;;;;;4943548;29;20035;-71
2024/01/23 04:13:22;;;;;;;2.83;1.00;;;4.40;99.90;;;;;;4940785;28;20110;-70
2024/01/23 04:15:48;;;;;;;2.85;1.20;;;4.30;99.90;;;;;;4947172;29;20117;-70
2024/01/23 04:18:14;;;;;;;1.95;1.63;;;4.40;99.90;;;;;;4939553;28;20027;-70
2024/01/23 04:20:40;;;;;;;2.08;0.90;;;4.40;99.90;;;;;;4947719;28;20027;-70
2024/01/23 04:23:05;;;;;;;0.85;0.82;;;4.40;99.90;;;;;;4944104;28;20537;-71
2024/01/23 04:25:31;;;;;;;1.75;1.30;;;4.40;99.90;;;;;;4946589;28;20043;-71
2024/01/23 04:27:57;;;;;;;1.25;1.15;;;4.30;99.90;;;;;;4933843;29;20047;-71
2024/01/23 04:30:23;;;;;;;4.25;0.80;;;4.30;99.90;;;;;;4931805;28;20481;-70
2024/01/23 04:32:49;;;;;;;0.70;0.70;;;4.30;99.90;;;;;;4944242;28;20062;-70
2024/01/23 04:35:15;;;;;;;1.88;0.88;;;4.30;99.90;;;;;;4939052;28;20324;-70
2024/01/23 04:37:40;;;;;;;1.10;1.00;;;4.30;99.90;;;;;;4944735;28;20029;-70
2024/01/23 04:40:08;;;;;;;2.28;1.08;;;4.20;99.90;;;;;;4946904;29;20119;-70
2024/01/23 04:42:37;;;;;;;2.83;1.17;;;4.20;99.90;;;;;;4922574;28;20487;-70
2024/01/23 04:45:03;;;;;;;1.23;0.90;;;4.20;99.90;;;;;;4945089;28;20071;-70
2024/01/23 04:47:29;;;;;;;1.00;0.75;;;4.20;99.90;;;;;;4945094;28;20024;-70
2024/01/23 04:49:54;;;;;;;1.08;1.08;;;4.10;99.90;;;;;;4949280;29;20034;-70
2024/01/23 04:52:20;;;;;;;1.10;0.90;;;4.10;99.90;;;;;;4948066;28;21801;-71
2024/01/23 04:54:46;;;;;;;5.40;1.13;;;4.10;99.90;;;;;;4941676;29;20115;-70
2024/01/23 04:57:14;;;;;;;3.10;1.50;;;4.10;99.90;;;;;;4949378;29;20030;-70
2024/01/23 04:59:42;;;;;;;0.98;0.95;;;4.10;99.90;;;;;;4949042;28;20389;-72
2024/01/23 05:02:08;;;;;;;1.45;1.00;;;4.00;99.90;;;;;;4950047;28;20094;-70
2024/01/23 05:04:34;;;;;;;4.85;0.93;;;4.00;99.90;;;;;;4943498;28;20094;-71
2024/01/23 05:06:59;;;;;;;0.80;0.80;;;4.00;99.90;;;;;;4948850;28;20031;-70
2024/01/23 05:09:29;;;;;;;1.02;0.80;;;4.00;99.90;;;;;;4945613;28;20031;-70
2024/01/23 05:11:55;;;;;;;1.50;1.10;;;4.10;99.90;;;;;;4945907;28;20292;-70
2024/01/23 05:14:20;;;;;;;5.93;1.08;;;4.20;99.90;;;;;;4945717;28;20388;-71
2024/01/23 05:16:46;;;;;;;3.33;1.10;;;4.20;99.90;;;;;;4949589;28;20524;-70
2024/01/23 05:19:12;;;;;;;1.80;1.00;;;4.30;99.90;;;;;;4935236;29;20035;-70
2024/01/23 05:21:38;;;;;;;2.33;0.90;;;4.30;99.90;;;;;;4941707;29;20032;-70
2024/01/23 05:24:03;;;;;;;1.50;0.95;;;4.40;99.90;;;;;;4952578;28;20050;-70
2024/01/23 05:26:29;;;;;;;2.35;1.17;;;4.40;99.90;;;;;;4950030;28;20105;-70
2024/01/23 05:28:55;;;;;;;1.00;0.80;;;4.50;99.90;;;;;;4948938;28;20528;-70
2024/01/23 05:31:20;;;;;;;3.00;1.10;;;4.50;99.90;;;;;;4946080;28;20043;-70
2024/01/23 05:33:46;;;;;;;1.48;0.80;;;4.50;99.90;;;;;;4938242;28;20152;-69
2024/01/23 05:36:12;;;;;;;1.75;0.90;;;4.50;99.90;;;;;;4922923;28;20489;-69
2024/01/23 05:38:38;;;;;;;6.43;1.45;;;4.60;99.90;;;;;;4940942;28;20030;-70
2024/01/23 05:41:04;;;;;;;0.60;0.60;;;4.60;99.90;;;;;;4938513;28;20082;-69
2024/01/23 05:43:29;;;;;;;2.03;1.27;;;4.70;99.90;;;;;;4945915;28;20583;-70
2024/01/23 05:45:55;;;;;;;2.47;0.77;;;4.70;99.90;;;;;;4937857;28;20110;-69
2024/01/23 05:48:21;;;;;;;5.40;1.13;;;4.70;99.90;;;;;;4947769;28;20118;-69
2024/01/23 05:50:47;;;;;;;0.73;0.73;;;4.70;99.90;;;;;;4948777;28;20023;-69
2024/01/23 05:53:13;;;;;;;0.70;0.70;;;4.70;99.90;;;;;;4952296;28;20074;-70
2024/01/23 05:55:38;;;;;;;2.08;1.08;;;4.70;99.90;;;;;;4945829;28;20031;-70
2024/01/23 05:58:05;;;;;;;1.67;1.00;;;4.60;99.90;;;;;;4946069;28;20058;-70
2024/01/23 06:00:31;;;;;;;2.03;1.05;;;4.60;99.90;;;;;;4947247;28;20086;-70
2024/01/23 06:02:57;;;;;;;2.40;0.85;;;4.60;99.90;;;;;;4947646;28;20114;-69
2024/01/23 06:05:22;;;;;;;2.83;1.10;;;4.60;99.90;;;;;;4951627;28;20132;-70
2024/01/23 06:07:51;;;;;;;1.98;1.15;;;4.60;99.90;;;;;;4946539;28;20050;-69
2024/01/23 06:10:17;;;;;;;3.10;1.52;;;4.60;99.90;;;;;;4946341;28;20093;-70
2024/01/23 06:12:43;;;;;;;4.25;1.02;;;4.60;99.90;;;;;;4949551;28;20035;-69
2024/01/23 06:15:10;;;;;;;1.30;0.90;;;4.50;99.90;;;;;;4953127;28;20038;-71
2024/01/23 06:17:36;;;;;;;4.22;1.15;;;4.50;99.90;;;;;;4942459;28;20055;-70
2024/01/23 06:20:07;;;;;;;3.15;0.82;;;4.50;99.90;;;;;;4950264;28;20026;-70
2024/01/23 06:22:34;;;;;;;0.93;0.88;;;4.70;99.90;;;;;;4949335;28;20058;-70
2024/01/23 06:25:08;;;;;;;5.35;1.25;;;4.70;99.90;;;;;;4922613;29;20031;-69
2024/01/23 06:27:35;;;;;;;1.05;0.77;;;4.70;99.90;;;;;;4939732;28;20509;-71
2024/01/23 06:30:00;;;;;;;2.95;1.00;;;4.60;99.90;;;;;;4933975;29;20516;-70
2024/01/23 06:32:26;;;;;;;2.65;0.98;;;4.60;99.90;;;;;;4947370;28;20035;-71
2024/01/23 06:34:52;;;;;;;1.95;1.20;;;4.60;99.90;;;;;;4938312;28;20603;-69
2024/01/23 06:37:21;;;;;;;1.23;1.23;;;4.70;99.90;;;;;;4931424;29;20023;-71
2024/01/23 06:39:47;;;;;;;;;;;4.70;99.90;;;;;;4944391;28;20173;-70
2024/01/23 06:42:12;;;;;;;2.58;1.70;;;4.60;99.90;;;;;;4949818;29;20288;-71
2024/01/23 06:44:39;;;;;;;1.77;1.08;;;4.60;99.90;;;;;;4945233;28;20027;-71
2024/01/23 06:47:05;;;;;;;1.50;1.20;;;4.60;99.90;;;;;;4946273;28;20102;-70
2024/01/23 06:49:31;;;;;;;3.50;1.17;;;4.50;99.90;;;;;;4948347;29;20039;-71
2024/01/23 06:51:57;;;;;;;2.05;1.50;;;4.60;99.90;;;;;;4945704;29;20031;-70
2024/01/23 06:54:22;;;;;;;2.75;1.10;;;4.50;99.90;;;;;;4943744;28;20023;-70
2024/01/23 06:56:48;;;;;;;5.15;1.33;;;4.50;99.90;;;;;;4952885;28;20093;-73
2024/01/23 06:59:15;;;;;;;1.70;0.88;;;4.50;99.90;;;;;;4934993;29;20031;-72
2024/01/23 07:01:41;;;;;;;2.50;0.82;;;4.50;99.90;;;;;;4945678;28;20114;-71
2024/01/23 07:04:07;;;;;;;4.43;1.27;;;4.50;99.90;;;;;;4945995;29;20118;-71
2024/01/23 07:06:33;;;;;;;1.90;1.20;;;4.40;99.90;;;;;;4945745;28;20037;-73
2024/01/23 07:08:59;;;;;;;1.40;1.13;;;4.40;99.90;;;;;;4930648;29;20027;-72
2024/01/23 07:11:25;;;;;;;4.82;1.63;;;4.40;99.90;;;;;;4947715;28;20039;-73
2024/01/23 07:13:51;;;;;;;14.02;5.38;;;4.30;99.90;;;;;;4932853;28;20036;-70
2024/01/23 07:16:17;;;;;;;5.57;2.42;;;4.30;99.90;;;;;;4947750;29;20737;-70
2024/01/23 07:18:43;;;;;;;3.30;3.00;;;4.20;99.90;;;;;;4952123;28;20031;-71
2024/01/23 07:21:09;;;;;;;5.93;3.00;;;4.20;99.90;;;;;;4945863;28;20030;-71
2024/01/23 07:23:36;;;;;;;4.15;3.40;;;4.20;99.90;;;;;;4945257;28;20031;-71
2024/01/23 07:26:02;;;;;;;6.53;3.72;;;4.10;99.90;;;;;;4924688;29;20706;-70
2024/01/23 07:28:28;;;;;;;2.78;2.10;;;4.10;99.90;;;;;;4933174;29;20027;-70
2024/01/23 07:30:54;;;;;;;5.32;1.45;;;4.10;99.90;;;;;;4942999;28;20035;-71
2024/01/23 07:33:19;;;;;;;2.17;1.35;;;4.00;99.90;;;;;;4941169;28;20036;-70
2024/01/23 07:35:45;;;;;;;1.92;1.33;;;4.00;99.90;;;;;;4941808;29;20035;-70
2024/01/23 07:38:11;;;;;;;5.03;3.05;;;4.00;99.90;;;;;;4943208;28;20035;-69
2024/01/23 07:40:41;;;;;;;6.82;2.00;;;4.00;99.90;;;;;;4934592;28;20087;-70
2024/01/23 07:43:07;;;;;;;3.00;2.78;;;3.90;99.90;;;;;;4933773;29;20087;-70
2024/01/23 07:45:36;;;;;;;4.38;2.17;;;3.90;99.90;;;;;;4920501;29;20622;-71
2024/01/23 07:48:01;;;;;;;4.47;1.63;;;3.90;99.90;;;;;;4934520;29;20109;-70
2024/01/23 07:50:27;;;;;;;1.85;1.48;;;3.90;99.90;;;;;;4948455;29;20489;-71
2024/01/23 07:52:54;;;;;;;1.48;1.00;;;3.90;99.90;;;;;;4941432;29;20220;-70
2024/01/23 07:55:19;;;;;;;2.60;2.28;;;3.90;99.90;;;;;;4945802;28;20500;-70
2024/01/23 07:57:45;;;;;;;2.75;1.33;;;3.90;99.90;;;;;;4942512;28;20035;-71
2024/01/23 08:00:12;;;;;;;5.97;1.55;;;3.80;99.90;;;;;;4943713;29;20473;-70
2024/01/23 08:02:38;;;;;;;4.13;1.42;;;3.90;99.90;;;;;;4941636;28;20456;-69
2024/01/23 08:05:04;;;;;;;0.90;0.90;;;3.80;99.90;;;;;;4948429;28;20024;-70
2024/01/23 08:07:29;;;;;;;0.93;0.90;;;3.80;99.90;;;;;;4936091;29;20164;-70
2024/01/23 08:09:55;;;;;;;0.63;0.63;;;3.80;99.90;;;;;;4948909;28;20536;-69
2024/01/23 08:12:21;;;;;;;0.60;0.60;;;3.90;99.90;;;;;;4947402;29;20358;-70
2024/01/23 08:14:46;;;;;;;0.60;0.60;;;3.80;99.90;;;;;;4946460;28;20034;-70
2024/01/23 08:17:12;;;;;;;0.60;0.60;;;3.80;99.90;;;;;;4946763;28;20468;-70
2024/01/23 08:19:40;;;;;;;0.50;0.50;;;3.80;99.90;;;;;;4940639;29;20023;-70
2024/01/23 08:22:06;;;;;;;0.70;0.70;;;3.80;99.90;;;;;;4948949;29;20330;-71
2024/01/23 08:24:32;;;;;;;0.63;0.63;;;3.80;99.90;;;;;;4945682;28;20524;-70
2024/01/23 08:26:58;;;;;;;1.00;1.00;;;3.80;99.90;;;;;;4941904;28;20019;-70
2024/01/23 08:29:24;;;;;;;0.60;0.60;;;3.80;99.90;;;;;;4940332;29;20481;-70
2024/01/23 08:31:49;;;;;;;0.63;0.63;;;3.90;99.90;;;;;;4942412;29;20095;-71
2024/01/23 08:34:15;;;;;;;0.73;0.73;;;3.80;99.90;;;;;;4928139;28;20024;-70
2024/01/23 08:36:41;;;;;;;0.60;0.60;;;3.80;99.90;;;;;;4947985;29;20077;-70
2024/01/23 08:39:08;;;;;;;0.70;0.70;;;3.80;99.90;;;;;;4943560;29;20536;-70
2024/01/23 08:41:38;;;;;;;0.57;0.57;;;3.80;99.90;;;;;;4930458;29;20019;-73
2024/01/23 08:44:04;;;;;;;0.50;0.50;;;3.80;99.90;;;;;;4938293;29;20462;-69
2024/01/23 08:46:30;;;;;;;0.60;0.60;;;3.90;99.90;;;;;;4947442;28;20038;-71
2024/01/23 08:48:56;;;;;;;0.85;0.85;;;3.90;99.90;;;;;;4944690;29;20183;-69
2024/01/23 08:51:24;;;;;;;2.33;0.82;;;3.90;99.90;;;;;;4942372;29;20151;-70
2024/01/23 08:53:53;;;;;;;1.35;0.80;;;3.90;99.90;;;;;;4945640;28;20401;-70
2024/01/23 08:56:23;;;;;;;0.70;0.70;;;3.90;99.90;;;;;;4943089;29;20043;-70
2024/01/23 08:58:49;;;;;;;0.55;0.55;;;3.90;99.90;;;;;;4945709;28;20019;-70
2024/01/23 09:01:16;;;;;;;0.70;0.70;;;4.00;99.90;;;;;;4944552;29;20035;-71
2024/01/23 09:03:43;;;;;;;1.75;1.45;;;4.10;99.90;;;;;;4941858;28;20569;-70
2024/01/23 09:06:17;;;;;;;1.77;1.00;;;4.20;99.90;;;;;;4922100;29;20034;-74
2024/01/23 09:08:43;;;;;;;0.98;0.90;;;4.20;99.90;;;;;;4932884;28;20086;-71
2024/01/23 09:11:09;;;;;;;1.23;1.10;;;4.20;99.90;;;;;;4948599;28;20543;-72
2024/01/23 09:13:34;;;;;;;1.52;0.98;;;4.30;99.90;;;;;;4943201;28;20103;-70
2024/01/23 09:16:00;;;;;;;1.52;1.10;;;4.30;99.90;;;;;;4940161;28;20042;-70
2024/01/23 09:18:28;;;;;;;3.85;1.20;;;4.30;99.90;;;;;;4926474;29;20056;-69
2024/01/23 09:20:53;;;;;;;3.38;1.20;;;4.50;99.90;;;;;;4943977;28;20169;-69
2024/01/23 09:23:19;;;;;;;2.50;1.17;;;4.60;99.90;;;;;;4942690;28;20408;-70
2024/01/23 09:25:45;;;;;;;2.17;1.10;;;4.70;99.90;;;;;;4947432;28;20042;-70
2024/01/23 09:28:11;;;;;;;1.92;1.02;;;4.80;99.90;;;;;;4947706;28;20034;-70
2024/01/23 09:30:37;;;;;;;6.40;1.20;;;4.80;99.90;;;;;;4947931;28;20133;-71
2024/01/23 09:33:03;;;;;;;0.77;0.77;;;4.80;99.90;;;;;;4944083;28;20074;-70
2024/01/23 09:35:32;;;;;;;0.70;0.70;;;4.80;99.90;;;;;;4946671;28;20445;-70
2024/01/23 09:37:58;;;;;;;2.97;1.33;;;4.80;99.90;;;;;;4951675;28;20030;-70
2024/01/23 09:40:23;;;;;;;4.75;1.23;;;4.80;99.90;;;;;;4933443;29;20392;-70
2024/01/23 09:42:55;;;;;;;0.88;0.88;;;4.80;99.90;;;;;;4948266;28;20024;-70
2024/01/23 09:45:25;;;;;;;2.92;1.65;;;4.80;99.90;;;;;;4947759;28;20034;-69
2024/01/23 09:47:51;;;;;;;5.78;1.55;;;4.80;99.90;;;;;;4952007;28;20222;-71
2024/01/23 09:50:18;;;;;;;1.90;1.75;;;4.90;99.90;;;;;;4951751;28;20134;-70
2024/01/23 09:52:46;;;;;;;2.92;1.60;;;4.90;99.90;;;;;;4930216;29;20126;-71
2024/01/23 09:55:12;;;;;;;4.00;1.90;;;4.90;99.90;;;;;;4954200;28;20520;-70
2024/01/23 09:57:42;;;;;;;7.32;2.42;;;4.90;99.90;;;;;;4937430;29;20086;-71
2024/01/23 10:00:12;;;;;;;3.10;1.77;;;5.00;99.90;;;;;;4940579;29;20476;-72
2024/01/23 10:02:45;;;;;;;17.73;8.55;;;5.00;99.90;;;;;;4949217;28;20430;-71
2024/01/23 10:05:15;;;;;;;127.10;55.45;;;5.00;99.90;;;;;;4938356;28;20543;-70
2024/01/23 10:07:42;;;;;;;1.85;1.70;;;5.00;99.90;;;;;;4952711;28;20508;-70
2024/01/23 10:10:16;;;;;;;4.13;1.40;;;5.10;99.90;;;;;;4950412;28;20029;-71
2024/01/23 10:12:44;;;;;;;1.38;1.02;;;5.10;99.90;;;;;;4949063;28;20035;-70
2024/01/23 10:15:16;;;;;;;2.65;1.90;;;4.90;99.90;;;;;;4948884;28;20027;-71
2024/01/23 10:17:43;;;;;;;3.85;1.80;;;5.00;99.90;;;;;;4933547;29;20272;-70
2024/01/23 10:20:10;;;;;;;2.53;1.75;;;5.00;99.90;;;;;;4940300;28;20023;-69
2024/01/23 10:22:36;;;;;;;1.27;1.17;;;5.00;99.90;;;;;;4946750;28;20049;-68
2024/01/23 10:25:10;;;;;;;2.22;1.35;;;5.00;99.90;;;;;;4939923;29;20027;-70
2024/01/23 10:27:36;;;;;;;1.73;1.58;;;5.00;99.90;;;;;;4962693;28;20028;-71
2024/01/23 10:30:03;;;;;;;2.20;1.70;;;5.00;99.90;;;;;;4969012;29;20031;-73
2024/01/23 10:32:32;;;;;;;2.42;1.50;;;5.10;99.90;;;;;;4967221;28;20046;-73
2024/01/23 10:34:57;;;;;;;;;;;5.20;99.90;;;;;;4960808;28;20035;-72
2024/01/23 10:37:23;;;;;;;2.38;1.58;;;5.30;99.90;;;;;;4971957;29;19921;-72
2024/01/23 10:39:53;;;;;;;1.25;1.10;;;5.30;99.90;;;;;;4969961;28;20166;-74
2024/01/23 10:42:19;;;;;;;3.20;1.65;;;5.30;99.90;;;;;;4966733;28;20023;-73
2024/01/23 10:44:47;;;;;;;1.02;1.02;;;5.30;99.90;;;;;;4940557;29;20027;-72
2024/01/23 10:47:14;;;;;;;4.82;2.85;;;5.40;99.90;;;;;;4973411;28;20027;-73
2024/01/23 10:49:41;;;;;;;2.08;1.30;;;5.50;99.90;;;;;;4969375;28;20728;-72
2024/01/23 10:52:09;;;;;;;3.47;1.40;;;5.60;99.90;;;;;;4962339;29;20035;-73
2024/01/23 10:54:42;;;;;;;1.10;1.10;;;5.50;99.90;;;;;;4958352;28;20015;-71
2024/01/23 10:57:15;;;;;;;2.75;1.60;;;5.50;99.90;;;;;;4957328;28;20027;-72
2024/01/23 10:59:45;;;;;;;2.03;1.48;;;5.50;99.90;;;;;;4963877;29;20297;-72
2024/01/23 11:02:47;;;;;;;2.63;1.50;;;5.50;99.90;;;;;;4958499;28;20039;-72
2024/01/23 11:05:13;;;;;;;7.05;1.55;;;5.70;99.90;;;;;;4954555;28;20023;-70
2024/01/23 11:07:52;;;;;;;2.83;2.08;;;5.90;99.90;;;;;;4961869;29;20058;-71
2024/01/23 11:10:48;;;;;;;1.30;1.20;;;6.10;99.90;;;;;;4953775;28;20035;-72
2024/01/23 11:13:30;;;;;;;3.42;1.25;;;6.20;99.90;;;;;;4948665;28;20035;-73
2024/01/23 11:15:57;;;;;;;1.25;1.13;;;6.40;99.90;;;;;;4939095;29;20027;-71
2024/01/23 11:18:25;;;;;;;1.85;0.88;;;6.30;99.90;;;;;;4959065;28;20038;-71
2024/01/23 11:21:09;;;;;;;;;;;6.20;99.90;;;;;;4955787;28;21622;-72
2024/01/23 11:23:39;;;;;;;2.67;1.30;;;6.10;99.90;;;;;;4958857;28;19923;-72
2024/01/23 11:26:22;;;;;;;2.00;1.00;;;6.10;99.90;;;;;;4948376;28;20039;-69
2024/01/23 11:28:51;;;;;;;2.45;0.88;;;6.00;99.90;;;;;;4942634;29;20031;-69
2024/01/23 11:31:23;;;;;;;3.88;1.23;;;6.00;99.90;;;;;;4926864;29;20039;-70
2024/01/23 11:33:51;;;;;;;2.78;1.20;;;6.10;99.90;;;;;;4946530;29;20023;-69
2024/01/23 11:36:28;;;;;;;2.97;1.10;;;6.20;99.90;;;;;;4943027;29;20230;-70
2024/01/23 11:38:57;;;;;;;1.08;0.60;;;6.30;99.90;;;;;;4943945;28;20028;-70
2024/01/23 11:41:27;;;;;;;3.42;1.23;;;6.30;99.90;;;;;;4917620;29;20552;-69
2024/01/23 11:43:54;;;;;;;3.50;1.17;;;6.30;99.90;;;;;;4934651;29;20325;-70
2024/01/23 11:46:25;;;;;;;5.83;1.93;;;6.30;99.90;;;;;;4918465;29;20496;-70
2024/01/23 11:48:52;;;;;;;0.80;0.80;;;6.30;99.90;;;;;;4936179;28;20656;-70
2024/01/23 11:51:18;;;;;;;0.88;0.88;;;6.30;99.90;;;;;;4941988;29;20035;-69
2024/01/23 11:53:45;;;;;;;2.42;1.10;;;6.30;99.90;;;;;;4933948;29;20034;-69
2024/01/23 11:56:13;;;;;;;2.53;1.40;;;6.20;99.90;;;;;;4939292;28;20075;-71
2024/01/23 11:58:44;;;;;;;0.77;0.60;;;6.20;99.90;;;;;;4941693;28;20035;-70
2024/01/23 12:01:16;;;;;;;4.93;1.30;;;6.30;99.90;;;;;;4928931;28;20131;-70
2024/01/23 12:03:48;;;;;;;2.85;1.25;;;6.40;99.90;;;;;;4917516;29;20091;-70
2024/01/23 12:06:15;;;;;;;2.97;1.00;;;6.40;99.90;;;;;;4931202;28;20050;-70
2024/01/23 12:08:41;;;;;;;4.32;1.45;;;6.40;99.90;;;;;;4933918;28;20028;-71
2024/01/23 12:11:07;;;;;;;1.52;1.10;;;6.60;99.90;;;;;;4932390;29;20027;-70
2024/01/23 12:13:32;;;;;;;1.67;1.08;;;6.60;99.90;;;;;;4934440;28;20034;-72
2024/01/23 12:15:58;;;;;;;2.35;1.17;;;6.60;99.90;;;;;;4931203;29;20214;-69
2024/01/23 12:18:24;;;;;;;2.60;1.27;;;6.90;99.90;;;;;;4938133;28;20421;-70
2024/01/23 12:20:54;;;;;;;4.97;1.23;;;6.90;99.90;;;;;;4933996;29;20529;-70
2024/01/23 12:23:20;;;;;;;3.83;1.35;;;7.00;99.90;;;;;;4944619;28;20043;-70
2024/01/23 12:25:47;;;;;;;2.22;1.08;;;7.00;99.90;;;;;;4935154;28;20564;-70
2024/01/23 12:28:17;;;;;;;5.35;1.60;;;7.10;99.90;;;;;;4933858;29;20363;-70
2024/01/23 12:30:44;;;;;;;1.52;1.40;;;7.10;99.90;;;;;;4917086;29;20046;-70
2024/01/23 12:33:17;;;;;;;2.45;1.02;;;7.10;99.90;;;;;;4938361;28;20102;-70
2024/01/23 12:35:44;;;;;;;2.92;1.05;;;7.20;99.90;;;;;;4942184;28;20023;-69
2024/01/23 12:38:14;;;;;;;2.08;1.02;;;7.10;99.90;;;;;;4934103;29;20023;-69
2024/01/23 12:40:40;;;;;;;1.60;1.13;;;6.90;99.90;;;;;;4943939;28;20118;-69
2024/01/23 12:43:07;;;;;;;0.80;0.80;;;6.90;99.90;;;;;;4928048;29;20484;-69
2024/01/23 12:45:32;;;;;;;3.17;1.23;;;7.00;99.90;;;;;;4944659;28;20039;-69
2024/01/23 12:47:59;;;;;;;2.05;1.10;;;7.00;99.90;;;;;;4938359;29;20448;-68
2024/01/23 12:50:25;;;;;;;3.33;1.20;;;7.00;99.90;;;;;;4946561;29;20233;-69
2024/01/23 12:52:53;;;;;;;3.15;1.30;;;7.10;99.90;;;;;;4943086;28;20375;-69
2024/01/23 12:55:20;;;;;;;2.10;0.88;;;7.30;99.90;;;;;;4943047;28;20032;-69
2024/01/23 12:57:45;;;;;;;3.08;1.20;;;7.30;99.90;;;;;;4949508;28;20023;-69